FW3211 Weather Reports


Display with metric or nautical units.
time (UTC)temp
F
wind
direction
speed
MPH
gust
MPH
rain 1hr
in
rain 24hr
in
rain mn
in
humidity
%
barometer
mb
20220119204249 46 70 2.0 8.0 0.06 0.07 0.07 84 1024.8
20220119203742 46 91 3.0 9.0 0.06 0.07 0.07 83 1024.8
20220119203242 46 87 3.0 10.0 0.06 0.06 0.06 82 1024.7
20220119202742 45 142 2.0 10.0 0.06 0.06 0.06 82 1024.7
20220119202243 45 51 0.0 3.0 0.06 0.06 0.06 81 1024.8
20220119201750 45 181 0.0 3.0 0.05 0.05 0.05 81 1024.9
20220119201240 45 152 0.0 3.0 0.05 0.05 0.05 81 1024.9
20220119200738 46 247 0.0 4.0 0.05 0.05 0.05 81 1025.0
20220119200236 46 201 1.0 8.0 0.04 0.04 0.04 80 1025.0
20220119195734 46 89 1.0 8.0 0.04 0.04 0.04 80 1025.0
20220119195233 46 87 1.0 7.0 0.04 0.04 0.04 80 1025.0
20220119194726 46 129 1.0 10.0 0.02 0.02 0.02 79 1025.1
20220119194220 45 93 0.0 10.0 0.02 0.02 0.02 79 1025.2
20220119193713 46 147 0.0 1.0 0.01 0.01 0.01 78 1025.2
20220119193212 46 172 0.0 2.0 0.00 0.00 0.00 78 1025.2
20220119192708 46 154 0.0 3.0 0.00 0.00 0.00 78 1025.3
20220119192222 46 147 0.0 3.0 0.00 0.00 0.00 78 1025.3
20220119191717 45 183 0.0 2.0 0.00 0.00 0.00 78 1025.4
20220119191208 45 218 0.0 0.0 0.00 0.00 0.00 78 1025.5
20220119190712 45 220 0.0 1.0 0.00 0.00 0.00 78 1025.5
20220119190209 45 222 0.0 1.0 0.00 0.00 0.00 78 1025.6
20220119185724 46 271 0.0 1.0 0.00 0.00 0.00 78 1025.7
20220119185222 45 272 0.0 3.0 0.00 0.00 0.00 77 1025.8
20220119184708 45 270 0.0 3.0 0.00 0.00 0.00 77 1026.0
20220119184208 45 245 0.0 0.0 0.00 0.00 0.00 77 1026.0
20220119183715 45 221 0.0 1.0 0.00 0.00 0.00 77 1026.0
20220119183206 45 235 0.0 1.0 0.00 0.00 0.00 77 1026.0
20220119182710 45 225 0.0 0.0 0.00 0.00 0.00 77 1026.0
20220119182207 45 242 0.0 0.0 0.00 0.00 0.00 77 1026.0
20220119181707 45 245 0.0 1.0 0.00 0.00 0.00 77 1026.1
20220119181207 45 255 0.0 1.0 0.00 0.00 0.00 77 1026.2
20220119180702 45 239 0.0 0.0 0.00 0.00 0.00 77 1026.2
20220119180200 45 247 0.0 0.0 0.00 0.00 0.00 77 1026.2
20220119175703 45 249 0.0 0.0 0.00 0.00 0.00 77 1026.3
20220119175155 45 246 0.0 0.0 0.00 0.00 0.00 77 1026.4
20220119174656 45 246 0.0 0.0 0.00 0.00 0.00 77 1026.5
20220119174155 45 246 0.0 0.0 0.00 0.00 0.00 77 1026.6
20220119173656 45 246 0.0 0.0 0.00 0.00 0.00 77 1026.5
20220119173152 45 246 0.0 0.0 0.00 0.00 0.00 77 1026.6
20220119172700 45 246 0.0 0.0 0.00 0.00 0.00 78 1026.7
20220119172152 45 246 0.0 0.0 0.00 0.00 0.00 78 1026.7
20220119171650 45 246 0.0 0.0 0.00 0.00 0.00 78 1026.7
20220119171148 45 246 0.0 0.0 0.00 0.00 0.00 78 1026.6
20220119170654 45 246 0.0 0.0 0.00 0.00 0.00 78 1026.7
20220119170142 45 246 0.0 0.0 0.00 0.00 0.00 78 1026.7
20220119165640 45 246 0.0 1.0 0.00 0.00 0.00 78 1026.7
20220119165140 45 246 0.0 2.0 0.00 0.00 0.00 78 1026.7
20220119164637 45 224 0.0 2.0 0.00 0.00 0.00 79 1026.8
20220119164142 45 270 0.0 1.0 0.00 0.00 0.00 79 1026.8
20220119163637 44 260 0.0 3.0 0.00 0.00 0.00 79 1026.8
20220119163139 44 274 0.0 3.0 0.00 0.00 0.00 79 1026.8
20220119162637 44 228 0.0 3.0 0.00 0.00 0.00 80 1026.9
20220119162135 44 207 0.0 3.0 0.00 0.00 0.00 79 1026.8
20220119161636 45 283 0.0 3.0 0.00 0.00 0.00 79 1026.9
20220119161146 45 218 0.0 1.0 0.00 0.00 0.00 78 1026.9
20220119160634 45 269 0.0 2.0 0.00 0.00 0.00 78 1026.9
20220119160134 45 235 0.0 3.0 0.00 0.00 0.00 78 1026.9
20220119155646 45 167 0.0 3.0 0.00 0.00 0.00 77 1026.9
20220119155135 45 158 0.0 0.0 0.00 0.00 0.00 77 1026.9
20220119154631 45 158 0.0 0.0 0.00 0.00 0.00 77 1026.8
20220119154128 45 158 0.0 1.0 0.00 0.00 0.00 77 1026.8
20220119153636 45 157 0.0 1.0 0.00 0.00 0.00 76 1026.8
20220119153121 45 141 0.0 0.0 0.00 0.00 0.00 76 1026.8
20220119152643 45 141 0.0 0.0 0.00 0.00 0.00 76 1026.9
20220119152131 46 141 0.0 1.0 0.00 0.00 0.00 76 1026.9
20220119151626 46 141 0.0 1.0 0.00 0.00 0.00 76 1027.0
20220119151115 46 100 0.0 0.0 0.00 0.00 0.00 75 1027.0
20220119150623 46 89 0.0 1.0 0.00 0.00 0.00 75 1027.2
20220119150123 46 164 0.0 1.0 0.00 0.00 0.00 75 1027.2
20220119145607 46 160 0.0 1.0 0.00 0.00 0.00 75 1027.3
20220119145121 46 129 0.0 1.0 0.00 0.00 0.00 74 1027.3
20220119144623 46 146 0.0 1.0 0.00 0.00 0.00 73 1027.3
20220119144112 47 147 0.0 2.0 0.00 0.00 0.00 73 1027.4
20220119143607 47 122 0.0 2.0 0.00 0.00 0.00 73 1027.4
20220119143111 47 141 0.0 1.0 0.00 0.00 0.00 72 1027.4
20220119142607 47 294 0.0 1.0 0.00 0.00 0.00 72 1027.5
20220119142111 47 84 0.0 0.0 0.00 0.00 0.00 71 1027.5
20220119141610 47 135 0.0 0.0 0.00 0.00 0.00 71 1027.6
20220119141108 47 100 0.0 0.0 0.00 0.00 0.00 71 1027.7
20220119140617 47 100 0.0 2.0 0.00 0.00 0.00 71 1027.7
20220119140113 47 98 0.0 2.0 0.00 0.00 0.00 69 1027.8
20220119135607 47 127 0.0 1.0 0.00 0.00 0.00 68 1027.8
20220119135111 47 135 0.0 1.0 0.00 0.00 0.00 69 1027.9
20220119134609 48 135 0.0 1.0 0.00 0.00 0.00 68 1027.9
20220119134114 48 139 0.0 1.0 0.00 0.00 0.00 69 1028.0
20220119133605 48 106 0.0 3.0 0.00 0.00 0.00 68 1028.0
20220119132621 48 167 0.0 3.0 0.00 0.00 0.00 67 1028.1
20220119132110 49 133 0.0 4.0 0.00 0.00 0.00 67 1028.2
20220119131605 49 103 1.0 9.0 0.00 0.00 0.00 66 1028.2
20220119131106 49 161 1.0 9.0 0.00 0.00 0.00 67 1028.4
20220119130602 50 104 1.0 5.0 0.00 0.00 0.00 67 1028.5
20220119130055 50 143 1.0 6.0 0.00 0.00 0.00 67 1028.5
20220119125601 50 154 1.0 6.0 0.00 0.00 0.00 67 1028.6
20220119125053 50 169 1.0 6.0 0.00 0.00 0.00 68 1028.7
20220119124600 50 144 2.0 8.0 0.00 0.00 0.00 68 1028.8
20220119124051 50 111 3.0 9.0 0.00 0.00 0.00 69 1028.9
20220119123605 50 173 2.0 9.0 0.00 0.00 0.00 68 1029.0
20220119123051 50 109 2.0 7.0 0.00 0.00 0.00 69 1029.1
20220119122552 50 136 2.0 9.0 0.00 0.00 0.00 69 1029.2
20220119122051 50 133 2.0 9.0 0.00 0.00 0.00 70 1029.3
20220119121552 51 90 1.0 7.0 0.00 0.00 0.00 70 1029.4
20220119121052 51 129 1.0 6.0 0.00 0.00 0.00 71 1029.5
20220119120551 51 75 1.0 4.0 0.00 0.00 0.00 73 1029.5
20220119120106 50 171 1.0 4.0 0.00 0.00 0.00 73 1029.6
20220119115553 50 106 1.0 6.0 0.00 0.00 0.00 73 1029.8
20220119115051 50 193 1.0 6.0 0.00 0.00 0.00 74 1029.9
20220119114551 50 90 1.0 6.0 0.00 0.00 0.00 74 1029.9
20220119114051 50 163 1.0 6.0 0.00 0.00 0.00 75 1029.9
20220119113551 50 85 1.0 4.0 0.00 0.00 0.00 76 1030.1
20220119113051 50 80 1.0 4.0 0.00 0.00 0.00 76 1030.1
20220119112555 50 210 0.0 4.0 0.00 0.00 0.00 76 1030.3
20220119112052 50 127 0.0 0.0 0.00 0.00 0.00 75 1030.3
20220119111552 50 133 0.0 0.0 0.00 0.00 0.00 75 1030.4
20220119111051 50 92 0.0 0.0 0.00 0.00 0.00 74 1030.5
20220119110551 50 92 0.0 1.0 0.00 0.00 0.00 74 1030.6
20220119110051 49 92 0.0 1.0 0.00 0.00 0.00 74 1030.7
20220119105553 49 96 0.0 1.0 0.00 0.00 0.00 74 1030.7
20220119105052 49 96 0.0 1.0 0.00 0.00 0.00 73 1030.9
20220119104554 49 112 0.0 0.0 0.00 0.00 0.00 73 1030.9
20220119104051 49 112 0.0 0.0 0.00 0.00 0.00 72 1031.0
20220119103551 49 112 0.0 0.0 0.00 0.00 0.00 71 1031.0
20220119103052 49 112 0.0 0.0 0.00 0.00 0.00 71 1031.1
20220119102552 49 112 0.0 0.0 0.00 0.00 0.00 70 1031.1
20220119102051 50 112 0.0 0.0 0.00 0.00 0.00 70 1031.2
20220119101552 50 112 0.0 0.0 0.00 0.00 0.00 70 1031.2
20220119101051 50 112 0.0 0.0 0.00 0.00 0.00 70 1031.3
20220119100555 50 113 0.0 1.0 0.00 0.00 0.00 71 1031.4
20220119100051 50 113 0.0 1.0 0.00 0.00 0.00 72 1031.4
20220119095551 50 118 0.0 3.0 0.00 0.00 0.00 71 1031.4
20220119095051 50 102 1.0 3.0 0.00 0.00 0.00 77 1031.4
20220119094550 49 94 1.0 7.0 0.00 0.00 0.00 76 1031.5
20220119094049 49 81 1.0 7.0 0.00 0.00 0.00 76 1031.4
20220119093548 50 104 0.0 2.0 0.00 0.00 0.00 72 1031.4
20220119093048 50 118 0.0 2.0 0.00 0.00 0.00 75 1031.4
20220119092548 49 80 0.0 2.0 0.00 0.00 0.00 73 1031.4
20220119092051 49 120 0.0 0.0 0.00 0.00 0.00 64 1031.5
20220119091552 49 120 0.0 0.0 0.00 0.00 0.00 66 1031.4
20220119091055 49 119 0.0 3.0 0.00 0.00 0.00 71 1031.4
20220119090548 50 106 1.0 6.0 0.00 0.00 0.00 77 1031.4
20220119090042 50 67 1.0 6.0 0.00 0.00 0.00 74 1031.4
20220119085543 50 99 1.0 6.0 0.00 0.00 0.00 77 1031.4
20220119085044 49 84 0.0 6.0 0.00 0.00 0.00 75 1031.3
20220119084543 50 108 0.0 2.0 0.00 0.00 0.00 75 1031.4
20220119084043 50 90 0.0 2.0 0.00 0.00 0.00 74 1031.4
20220119083543 50 106 0.0 1.0 0.00 0.00 0.00 65 1031.4
20220119083043 50 105 0.0 2.0 0.00 0.00 0.00 63 1031.3
20220119082552 50 104 0.0 2.0 0.00 0.00 0.00 72 1031.4
20220119082039 50 74 0.0 1.0 0.00 0.00 0.00 68 1031.4
20220119081539 50 309 0.0 0.0 0.00 0.00 0.00 61 1031.4
20220119081040 50 307 0.0 0.0 0.00 0.00 0.00 62 1031.4
20220119080537 50 306 0.0 0.0 0.00 0.00 0.00 61 1031.4
20220119080042 50 306 0.0 0.0 0.00 0.00 0.00 62 1031.4
20220119075540 50 306 0.0 0.0 0.00 0.00 0.00 60 1031.4
20220119075041 49 306 0.0 0.0 0.00 0.00 0.00 60 1031.4
20220119074531 49 306 0.0 0.0 0.00 0.00 0.00 62 1031.3
20220119074050 48 306 0.0 0.0 0.00 0.00 0.00 61 1031.3
20220119073531 47 306 0.0 0.0 0.00 0.00 0.00 63 1031.3
20220119073032 47 306 0.0 0.0 0.00 0.00 0.00 63 1031.2
20220119072529 46 306 0.0 0.0 0.00 0.00 0.00 69 1031.2
20220119072027 45 306 0.0 0.0 0.00 0.00 0.00 73 1031.3
20220119071528 45 306 0.0 0.0 0.00 0.00 0.00 76 1031.3
20220119071023 44 306 0.0 0.0 0.00 0.00 0.00 74 1031.3
20220119070523 44 306 0.0 0.0 0.00 0.00 0.00 75 1031.3
20220119070037 44 303 0.0 0.0 0.00 0.00 0.00 75 1031.2
20220119065526 44 309 0.0 0.0 0.00 0.00 0.00 75 1031.2
20220119065030 44 309 0.0 0.0 0.00 0.00 0.00 74 1031.2
20220119064521 44 312 0.0 0.0 0.00 0.00 0.00 74 1031.2
20220119064021 44 311 0.0 0.0 0.00 0.00 0.00 71 1031.3
20220119063521 44 309 0.0 0.0 0.00 0.00 0.00 70 1031.3
20220119063031 44 310 0.0 0.0 0.00 0.00 0.00 71 1031.2
20220119062521 44 308 0.0 0.0 0.00 0.00 0.00 70 1031.2
20220119062021 44 308 0.0 0.0 0.00 0.00 0.00 71 1031.2
20220119061521 44 308 0.0 0.0 0.00 0.00 0.00 70 1031.2
20220119061021 44 315 0.0 0.0 0.00 0.00 0.00 70 1031.2
20220119060522 44 322 0.0 0.0 0.00 0.00 0.00 70 1031.2
20220119060017 44 312 0.0 1.0 0.00 0.00 0.00 71 1031.2
20220119055517 44 305 0.0 1.0 0.00 0.00 0.00 70 1031.3
20220119055019 44 305 0.0 0.0 0.00 0.00 0.00 69 1031.3
20220119054530 44 308 0.0 0.0 0.00 0.00 0.00 68 1031.3
20220119054017 44 307 0.0 0.0 0.00 0.00 0.00 69 1031.3
20220119053519 44 310 0.0 0.0 0.00 0.00 0.00 69 1031.3
20220119053025 44 309 0.0 0.0 0.00 0.00 0.00 68 1031.3
20220119052516 44 307 0.0 0.0 0.00 0.00 0.00 67 1031.3
20220119052010 44 305 0.0 1.0 0.00 0.00 0.00 66 1031.3
20220119051509 44 305 0.0 1.0 0.00 0.00 0.00 64 1031.4
20220119051022 44 321 0.0 1.0 0.00 0.00 0.00 63 1031.4
20220119050509 44 301 0.0 1.0 0.00 0.00 0.00 63 1031.4
20220119050007 45 308 0.0 1.0 0.00 0.00 0.00 63 1031.4
20220119045508 45 314 0.0 1.0 0.00 0.00 0.00 62 1031.4
20220119045010 45 310 0.0 0.0 0.00 0.00 0.00 62 1031.5
20220119044508 45 312 0.0 1.0 0.00 0.00 0.00 61 1031.5
20220119044007 45 310 0.0 1.0 0.00 0.00 0.00 59 1031.5
20220119043500 45 309 0.0 0.0 0.00 0.00 0.00 59 1031.6
20220119042954 45 310 0.0 0.0 0.00 0.00 0.00 58 1031.6
20220119042450 45 309 0.0 0.0 0.00 0.00 0.00 58 1031.6
20220119041943 46 307 0.0 1.0 0.00 0.00 0.00 57 1031.6
20220119041447 46 307 0.0 1.0 0.00 0.00 0.00 57 1031.6
20220119040942 46 308 0.0 0.0 0.00 0.00 0.00 57 1031.5
20220119040443 46 308 0.0 0.0 0.00 0.00 0.00 57 1031.6
20220119035940 46 309 0.0 0.0 0.00 0.00 0.00 57 1031.5
20220119035439 46 309 0.0 0.0 0.00 0.00 0.00 57 1031.5
20220119034937 46 308 0.0 0.0 0.00 0.00 0.00 58 1031.6
20220119034436 46 312 0.0 0.0 0.00 0.00 0.00 58 1031.7
20220119033942 46 312 0.0 0.0 0.00 0.00 0.00 58 1031.7
20220119033432 46 313 0.0 0.0 0.00 0.00 0.00 59 1031.7
20220119032933 46 309 0.0 0.0 0.00 0.00 0.00 59 1031.7
20220119032432 46 309 0.0 0.0 0.00 0.00 0.00 61 1031.6
20220119031933 46 309 0.0 0.0 0.00 0.00 0.00 60 1031.7
20220119031514 46 309 0.0 0.0 0.00 0.00 0.00 60 1031.7
20220119031006 46 309 0.0 0.0 0.00 0.00 0.00 61 1031.7
20220119030432 46 309 0.0 0.0 0.00 0.00 0.00 62 1031.7
20220119025932 46 308 0.0 0.0 0.00 0.00 0.00 62 1031.7
20220119025432 46 308 0.0 0.0 0.00 0.00 0.00 61 1031.8
20220119024932 46 308 0.0 0.0 0.00 0.00 0.00 62 1031.8
20220119024433 46 308 0.0 0.0 0.00 0.00 0.00 63 1031.9
20220119023933 46 308 0.0 0.0 0.00 0.00 0.00 64 1032.0
20220119023434 46 303 0.0 0.0 0.00 0.00 0.00 63 1031.9
20220119022932 46 303 0.0 0.0 0.00 0.00 0.00 63 1032.0
20220119022433 46 303 0.0 0.0 0.00 0.00 0.00 62 1032.0
20220119021933 46 303 0.0 0.0 0.00 0.00 0.00 62 1032.1
20220119021431 46 303 0.0 0.0 0.00 0.00 0.00 62 1032.2
20220119020928 46 303 0.0 0.0 0.00 0.00 0.00 62 1032.2
20220119020425 46 303 0.0 0.0 0.00 0.00 0.00 61 1032.4
20220119015923 46 303 0.0 0.0 0.00 0.00 0.00 60 1032.4
20220119015423 46 303 0.0 0.0 0.00 0.00 0.00 61 1032.4
20220119014926 46 303 0.0 0.0 0.00 0.00 0.00 60 1032.6
20220119014418 46 303 0.0 0.0 0.00 0.00 0.00 61 1032.6
20220119013916 46 303 0.0 0.0 0.00 0.00 0.00 61 1032.7
20220119013417 46 303 0.0 0.0 0.00 0.00 0.00 61 1032.7
20220119012918 46 303 0.0 0.0 0.00 0.00 0.00 61 1032.9
20220119012410 46 303 0.0 0.0 0.00 0.00 0.00 61 1032.9
20220119011909 46 303 0.0 0.0 0.00 0.00 0.00 62 1032.7
20220119011408 46 303 0.0 0.0 0.00 0.00 0.00 61 1032.5
20220119010907 46 305 0.0 0.0 0.00 0.00 0.00 61 1032.4
20220119010406 46 305 0.0 0.0 0.00 0.00 0.00 61 1032.5
20220119005919 46 305 0.0 1.0 0.00 0.00 0.00 61 1032.6
20220119005407 46 308 0.0 1.0 0.00 0.00 0.00 62 1032.7
20220119004905 46 307 0.0 1.0 0.00 0.00 0.00 63 1032.8
20220119004406 46 308 0.0 1.0 0.00 0.00 0.00 62 1032.9
20220119003909 46 307 0.0 1.0 0.00 0.00 0.00 62 1032.9
20220119003405 46 307 0.0 1.0 0.00 0.00 0.00 62 1033.0
20220119002904 46 306 0.0 1.0 0.00 0.00 0.00 63 1033.0
20220119002406 46 307 0.0 1.0 0.00 0.00 0.00 64 1033.1
20220119001905 46 308 0.0 1.0 0.00 0.00 0.00 64 1033.2
20220119001409 46 303 0.0 0.0 0.00 0.00 0.00 64 1033.0
20220119000905 47 303 0.0 0.0 0.00 0.00 0.00 63 1032.9
20220119000406 47 303 0.0 0.0 0.00 0.00 0.00 63 1032.7
20220118235910 47 303 0.0 0.0 0.00 0.00 0.00 63 1032.6
20220118235410 47 303 0.0 0.0 0.00 0.00 0.00 64 1032.7
20220118234919 47 301 0.0 0.0 0.00 0.00 0.00 64 1032.9
20220118234407 47 301 0.0 0.0 0.00 0.00 0.00 63 1033.1
20220118233904 47 301 0.0 0.0 0.00 0.00 0.00 64 1033.1
20220118233403 47 301 0.0 0.0 0.00 0.00 0.00 64 1033.1
20220118232911 47 301 0.0 0.0 0.00 0.00 0.00 65 1033.0
20220118232403 47 301 0.0 0.0 0.00 0.00 0.00 66 1032.9
20220118231911 47 301 0.0 0.0 0.00 0.00 0.00 66 1032.9
20220118231404 47 301 0.0 0.0 0.00 0.00 0.00 67 1032.9
20220118230906 47 301 0.0 0.0 0.00 0.00 0.00 66 1032.9
20220118230406 47 301 0.0 0.0 0.00 0.00 0.00 66 1032.9
20220118225909 47 301 0.0 0.0 0.00 0.00 0.00 66 1033.0
20220118225423 47 301 0.0 0.0 0.00 0.00 0.00 66 1032.9
20220118224908 47 301 0.0 0.0 0.00 0.00 0.00 66 1032.9
20220118224409 47 301 0.0 0.0 0.00 0.00 0.00 66 1032.9
20220118223909 47 301 0.0 0.0 0.00 0.00 0.00 66 1032.9
20220118223406 47 300 0.0 0.0 0.00 0.00 0.00 66 1032.9
20220118222910 47 294 0.0 0.0 0.00 0.00 0.00 66 1033.0
20220118222431 47 291 0.0 0.0 0.00 0.00 0.00 65 1033.0
20220118221910 47 291 0.0 0.0 0.00 0.00 0.00 66 1033.1
20220118221410 47 291 0.0 0.0 0.00 0.00 0.00 66 1033.1
20220118220901 47 291 0.0 0.0 0.00 0.00 0.00 65 1033.0
20220118220400 47 291 0.0 0.0 0.00 0.00 0.00 65 1033.1
20220118215900 46 291 0.0 0.0 0.00 0.00 0.00 66 1033.1
20220118215357 46 291 0.0 0.0 0.00 0.00 0.00 68 1033.0
20220118214854 46 291 0.0 0.0 0.00 0.00 0.00 68 1033.0
20220118214405 46 291 0.0 0.0 0.00 0.00 0.00 67 1032.9
20220118213853 46 291 0.0 0.0 0.00 0.00 0.00 68 1032.7
20220118213349 47 291 0.0 0.0 0.00 0.00 0.00 67 1032.7
20220118212851 47 291 0.0 0.0 0.00 0.00 0.00 68 1032.6
20220118212348 47 291 0.0 0.0 0.00 0.00 0.00 67 1032.5
20220118211848 47 291 0.0 0.0 0.00 0.00 0.00 69 1032.6
20220118211346 47 291 0.0 0.0 0.00 0.00 0.00 70 1032.7
20220118210843 47 291 0.0 0.0 0.00 0.00 0.00 69 1032.9
20220118210342 47 291 0.0 0.0 0.00 0.00 0.00 69 1032.9
20220118205843 47 291 0.0 0.0 0.00 0.00 0.00 69 1033.0
20220118205342 47 290 0.0 0.0 0.00 0.00 0.00 68 1033.0
20220118205116 47 290 0.0 0.0 0.00 0.00 0.00 70 1033.0
20220118204843 47 290 0.0 0.0 0.00 0.00 0.00 70 1033.0